Forside
METAR-TAF:

METAR-TAF

Lufthavne :

Bukhara, Usbekistan

Breddekreds: 39-46-30N, længdekreds: 064-29-00E, højde: 229 m

Aktuelle vejr

Denne rapport blev lavet for 26 minutter siden, kl. 23:30 UTC
Vind stille
Temperatur 14°C
Fugtighed 67%
Tryk 1019 hPa
Sigt 10 km eller mere
ingen skyer under 1500m og ingen cumulonimbus

METAR: UTSB 202330Z 00000KT CAVOK 14/08 Q1019 R01/CLRD70 NOSIG

Tid: 04:56 (23:56 UTC)

Vejrudsigter

Denne rapport blev lavet for 56 minutter siden, kl. 23:00 UTC
Foreløbig gælder fra 21 på 00 UTC til 21 på 24 UTC
Vind 3 kt fra varierende retninger
Sigt: 7000 m
Midlertidig
fra 21 på 03 UTC til 21 på 14 UTC
Vind 12 kt fra vestsydvest

TAF: UTSB 202300Z 2100/2124 VRB03KT 7000 NSC TEMPO 2103/2114 24012KT

Vejrobservationer og prognoser fra mere end 4000 lufthavne (METAR og TAF).

De gule og røde prikker repræsenterer de meteorologiske stationer.

Flyt musen over at se navnet på stationen.

Så klik over at se vejr observationer og prognoser.

At skifte det kort: Klik på de grønne knapper med et sort kors for at zoome ind; på den grønne knap med en bindestreg for at zoome ud; eller på de grønne pile for tilstødende kort.


METAR-TAF: